sensor_id;sensor_type;location;lat;lon;timestamp;P1;durP1;ratioP1;P2;durP2;ratioP2
82005;SDS011;71529;47.484;19.064;2024-02-28T00:00:51;22.85;;;13.63;;
82005;SDS011;71529;47.484;19.064;2024-02-28T00:03:20;30.77;;;14.57;;
82005;SDS011;71529;47.484;19.064;2024-02-28T00:05:49;29.67;;;14.15;;
82005;SDS011;71529;47.484;19.064;2024-02-28T00:08:18;22.88;;;14.55;;
82005;SDS011;71529;47.484;19.064;2024-02-28T00:10:48;29.95;;;16.20;;
82005;SDS011;71529;47.484;19.064;2024-02-28T00:13:19;23.02;;;14.50;;
82005;SDS011;71529;47.484;19.064;2024-02-28T00:15:50;23.83;;;14.63;;
82005;SDS011;71529;47.484;19.064;2024-02-28T00:18:18;29.15;;;16.60;;
82005;SDS011;71529;47.484;19.064;2024-02-28T00:20:47;28.15;;;15.13;;
82005;SDS011;71529;47.484;19.064;2024-02-28T00:23:16;24.95;;;15.32;;
82005;SDS011;71529;47.484;19.064;2024-02-28T00:25:45;25.55;;;14.32;;
82005;SDS011;71529;47.484;19.064;2024-02-28T00:28:15;25.33;;;15.60;;
82005;SDS011;71529;47.484;19.064;2024-02-28T00:30:47;27.80;;;14.73;;
82005;SDS011;71529;47.484;19.064;2024-02-28T00:33:17;23.33;;;15.10;;
82005;SDS011;71529;47.484;19.064;2024-02-28T00:35:45;24.38;;;14.95;;
82005;SDS011;71529;47.484;19.064;2024-02-28T00:38:15;24.48;;;14.13;;
82005;SDS011;71529;47.484;19.064;2024-02-28T00:40:44;25.15;;;15.52;;
82005;SDS011;71529;47.484;19.064;2024-02-28T00:43:13;26.05;;;14.18;;
82005;SDS011;71529;47.484;19.064;2024-02-28T00:45:42;21.85;;;14.07;;
82005;SDS011;71529;47.484;19.064;2024-02-28T00:48:14;25.23;;;15.02;;
82005;SDS011;71529;47.484;19.064;2024-02-28T00:50:44;26.70;;;15.52;;
82005;SDS011;71529;47.484;19.064;2024-02-28T00:53:13;26.23;;;15.63;;
82005;SDS011;71529;47.484;19.064;2024-02-28T00:55:42;23.83;;;13.85;;
82005;SDS011;71529;47.484;19.064;2024-02-28T00:58:11;27.08;;;15.98;;
82005;SDS011;71529;47.484;19.064;2024-02-28T01:00:40;23.85;;;15.43;;
82005;SDS011;71529;47.484;19.064;2024-02-28T01:03:09;20.38;;;14.40;;
82005;SDS011;71529;47.484;19.064;2024-02-28T01:05:43;28.70;;;15.43;;
82005;SDS011;71529;47.484;19.064;2024-02-28T01:08:12;28.80;;;15.55;;
82005;SDS011;71529;47.484;19.064;2024-02-28T01:10:43;28.10;;;15.85;;
82005;SDS011;71529;47.484;19.064;2024-02-28T01:13:12;25.08;;;15.55;;
82005;SDS011;71529;47.484;19.064;2024-02-28T01:15:41;27.88;;;16.52;;
82005;SDS011;71529;47.484;19.064;2024-02-28T01:18:10;22.38;;;15.43;;
82005;SDS011;71529;47.484;19.064;2024-02-28T01:20:39;28.15;;;16.33;;
82005;SDS011;71529;47.484;19.064;2024-02-28T01:23:11;24.15;;;15.93;;
82005;SDS011;71529;47.484;19.064;2024-02-28T01:25:43;22.50;;;14.18;;
82005;SDS011;71529;47.484;19.064;2024-02-28T01:28:12;21.92;;;14.93;;
82005;SDS011;71529;47.484;19.064;2024-02-28T01:30:41;30.00;;;16.70;;
82005;SDS011;71529;47.484;19.064;2024-02-28T01:33:10;29.55;;;16.42;;
82005;SDS011;71529;47.484;19.064;2024-02-28T01:35:39;25.77;;;15.98;;
82005;SDS011;71529;47.484;19.064;2024-02-28T01:38:11;26.50;;;16.55;;
82005;SDS011;71529;47.484;19.064;2024-02-28T01:40:43;28.80;;;16.73;;
82005;SDS011;71529;47.484;19.064;2024-02-28T01:43:12;24.80;;;16.13;;
82005;SDS011;71529;47.484;19.064;2024-02-28T01:45:42;26.67;;;15.93;;
82005;SDS011;71529;47.484;19.064;2024-02-28T01:48:11;26.02;;;15.63;;
82005;SDS011;71529;47.484;19.064;2024-02-28T01:50:41;28.50;;;17.48;;
82005;SDS011;71529;47.484;19.064;2024-02-28T01:53:13;24.63;;;16.73;;
82005;SDS011;71529;47.484;19.064;2024-02-28T01:55:42;26.02;;;15.77;;
82005;SDS011;71529;47.484;19.064;2024-02-28T01:58:11;25.95;;;16.90;;
82005;SDS011;71529;47.484;19.064;2024-02-28T02:00:40;28.38;;;16.05;;
82005;SDS011;71529;47.484;19.064;2024-02-28T02:03:10;26.20;;;15.82;;
82005;SDS011;71529;47.484;19.064;2024-02-28T02:05:39;28.05;;;15.30;;
82005;SDS011;71529;47.484;19.064;2024-02-28T02:08:10;20.15;;;13.98;;
82005;SDS011;71529;47.484;19.064;2024-02-28T02:10:42;24.88;;;14.07;;
82005;SDS011;71529;47.484;19.064;2024-02-28T02:13:12;22.45;;;13.48;;
82005;SDS011;71529;47.484;19.064;2024-02-28T02:15:41;32.80;;;13.40;;
82005;SDS011;71529;47.484;19.064;2024-02-28T02:18:10;26.17;;;13.85;;
82005;SDS011;71529;47.484;19.064;2024-02-28T02:20:40;18.30;;;12.80;;
82005;SDS011;71529;47.484;19.064;2024-02-28T02:23:15;27.52;;;11.93;;
82005;SDS011;71529;47.484;19.064;2024-02-28T02:25:44;20.70;;;11.65;;
82005;SDS011;71529;47.484;19.064;2024-02-28T02:28:14;20.52;;;11.63;;
82005;SDS011;71529;47.484;19.064;2024-02-28T02:30:43;22.15;;;11.43;;
82005;SDS011;71529;47.484;19.064;2024-02-28T02:33:12;27.00;;;11.40;;
82005;SDS011;71529;47.484;19.064;2024-02-28T02:35:42;24.17;;;12.38;;
82005;SDS011;71529;47.484;19.064;2024-02-28T02:38:11;22.75;;;11.75;;
82005;SDS011;71529;47.484;19.064;2024-02-28T02:40:43;19.50;;;11.43;;
82005;SDS011;71529;47.484;19.064;2024-02-28T02:43:12;22.40;;;10.60;;
82005;SDS011;71529;47.484;19.064;2024-02-28T02:45:41;22.20;;;11.38;;
82005;SDS011;71529;47.484;19.064;2024-02-28T02:48:10;18.67;;;10.00;;
82005;SDS011;71529;47.484;19.064;2024-02-28T02:50:39;14.23;;;9.63;;
82005;SDS011;71529;47.484;19.064;2024-02-28T02:53:09;18.63;;;11.15;;
82005;SDS011;71529;47.484;19.064;2024-02-28T02:55:38;19.58;;;12.07;;
82005;SDS011;71529;47.484;19.064;2024-02-28T02:58:10;25.35;;;12.13;;
82005;SDS011;71529;47.484;19.064;2024-02-28T03:00:39;18.80;;;10.70;;
82005;SDS011;71529;47.484;19.064;2024-02-28T03:03:08;18.33;;;11.60;;
82005;SDS011;71529;47.484;19.064;2024-02-28T03:05:36;17.88;;;11.82;;
82005;SDS011;71529;47.484;19.064;2024-02-28T03:08:06;19.30;;;12.05;;
82005;SDS011;71529;47.484;19.064;2024-02-28T03:10:35;27.58;;;11.68;;
82005;SDS011;71529;47.484;19.064;2024-02-28T03:13:04;17.13;;;10.43;;
82005;SDS011;71529;47.484;19.064;2024-02-28T03:15:36;18.77;;;11.27;;
82005;SDS011;71529;47.484;19.064;2024-02-28T03:18:04;23.20;;;11.73;;
82005;SDS011;71529;47.484;19.064;2024-02-28T03:20:34;16.25;;;11.20;;
82005;SDS011;71529;47.484;19.064;2024-02-28T03:23:04;16.35;;;11.02;;
82005;SDS011;71529;47.484;19.064;2024-02-28T03:25:33;18.38;;;10.68;;
82005;SDS011;71529;47.484;19.064;2024-02-28T03:28:02;17.00;;;11.55;;
82005;SDS011;71529;47.484;19.064;2024-02-28T03:30:32;18.17;;;11.13;;
82005;SDS011;71529;47.484;19.064;2024-02-28T03:33:03;23.65;;;10.95;;
82005;SDS011;71529;47.484;19.064;2024-02-28T03:35:33;17.30;;;10.88;;
82005;SDS011;71529;47.484;19.064;2024-02-28T03:38:02;20.88;;;11.68;;
82005;SDS011;71529;47.484;19.064;2024-02-28T03:40:30;18.42;;;12.15;;
82005;SDS011;71529;47.484;19.064;2024-02-28T03:42:59;18.13;;;11.05;;
82005;SDS011;71529;47.484;19.064;2024-02-28T03:45:28;21.05;;;12.10;;
82005;SDS011;71529;47.484;19.064;2024-02-28T03:47:57;19.25;;;11.98;;
82005;SDS011;71529;47.484;19.064;2024-02-28T03:50:28;16.83;;;12.07;;
82005;SDS011;71529;47.484;19.064;2024-02-28T03:52:57;16.65;;;11.32;;
82005;SDS011;71529;47.484;19.064;2024-02-28T03:55:26;22.40;;;11.48;;
82005;SDS011;71529;47.484;19.064;2024-02-28T03:57:56;19.88;;;11.50;;
82005;SDS011;71529;47.484;19.064;2024-02-28T04:00:25;19.33;;;11.52;;
82005;SDS011;71529;47.484;19.064;2024-02-28T04:02:53;18.10;;;11.45;;
82005;SDS011;71529;47.484;19.064;2024-02-28T04:05:22;23.63;;;11.95;;
82005;SDS011;71529;47.484;19.064;2024-02-28T04:07:54;16.25;;;10.95;;
82005;SDS011;71529;47.484;19.064;2024-02-28T04:10:23;18.98;;;11.25;;
82005;SDS011;71529;47.484;19.064;2024-02-28T04:12:52;15.82;;;10.10;;
82005;SDS011;71529;47.484;19.064;2024-02-28T04:15:21;17.02;;;10.35;;
82005;SDS011;71529;47.484;19.064;2024-02-28T04:17:51;18.67;;;10.40;;
82005;SDS011;71529;47.484;19.064;2024-02-28T04:20:21;23.27;;;11.15;;
82005;SDS011;71529;47.484;19.064;2024-02-28T04:22:49;20.98;;;11.43;;
82005;SDS011;71529;47.484;19.064;2024-02-28T04:25:21;18.25;;;10.32;;
82005;SDS011;71529;47.484;19.064;2024-02-28T04:27:49;19.52;;;10.90;;
82005;SDS011;71529;47.484;19.064;2024-02-28T04:30:18;14.93;;;10.35;;
82005;SDS011;71529;47.484;19.064;2024-02-28T04:32:47;19.67;;;10.52;;
82005;SDS011;71529;47.484;19.064;2024-02-28T04:35:16;15.93;;;9.68;;
82005;SDS011;71529;47.484;19.064;2024-02-28T04:37:46;14.85;;;10.18;;
82005;SDS011;71529;47.484;19.064;2024-02-28T04:40:15;19.27;;;10.85;;
82005;SDS011;71529;47.484;19.064;2024-02-28T04:42:47;17.13;;;9.65;;
82005;SDS011;71529;47.484;19.064;2024-02-28T04:45:16;23.17;;;10.75;;
82005;SDS011;71529;47.484;19.064;2024-02-28T04:47:45;25.15;;;11.32;;
82005;SDS011;71529;47.484;19.064;2024-02-28T04:50:17;22.08;;;11.15;;
82005;SDS011;71529;47.484;19.064;2024-02-28T04:52:46;19.98;;;10.75;;
82005;SDS011;71529;47.484;19.064;2024-02-28T04:55:14;14.45;;;10.32;;
82005;SDS011;71529;47.484;19.064;2024-02-28T04:57:43;19.00;;;9.98;;
82005;SDS011;71529;47.484;19.064;2024-02-28T05:00:15;18.23;;;10.30;;
82005;SDS011;71529;47.484;19.064;2024-02-28T05:02:45;25.45;;;11.57;;
82005;SDS011;71529;47.484;19.064;2024-02-28T05:05:14;20.80;;;11.40;;
82005;SDS011;71529;47.484;19.064;2024-02-28T05:07:43;20.38;;;11.52;;
82005;SDS011;71529;47.484;19.064;2024-02-28T05:10:12;20.45;;;11.85;;
82005;SDS011;71529;47.484;19.064;2024-02-28T05:12:41;24.20;;;11.18;;
82005;SDS011;71529;47.484;19.064;2024-02-28T05:15:11;28.63;;;12.30;;
82005;SDS011;71529;47.484;19.064;2024-02-28T05:17:42;22.88;;;12.40;;
82005;SDS011;71529;47.484;19.064;2024-02-28T05:20:11;21.70;;;12.32;;
82005;SDS011;71529;47.484;19.064;2024-02-28T05:22:40;18.38;;;11.88;;
82005;SDS011;71529;47.484;19.064;2024-02-28T05:25:09;25.67;;;12.48;;
82005;SDS011;71529;47.484;19.064;2024-02-28T05:27:38;25.08;;;12.10;;
82005;SDS011;71529;47.484;19.064;2024-02-28T05:30:08;19.88;;;12.10;;
82005;SDS011;71529;47.484;19.064;2024-02-28T05:32:38;27.35;;;11.75;;
82005;SDS011;71529;47.484;19.064;2024-02-28T05:35:10;16.45;;;11.82;;
82005;SDS011;71529;47.484;19.064;2024-02-28T05:37:40;18.98;;;11.70;;
82005;SDS011;71529;47.484;19.064;2024-02-28T05:40:09;17.02;;;10.85;;
82005;SDS011;71529;47.484;19.064;2024-02-28T05:42:38;23.40;;;10.70;;
82005;SDS011;71529;47.484;19.064;2024-02-28T05:45:08;17.02;;;10.27;;
82005;SDS011;71529;47.484;19.064;2024-02-28T05:47:37;17.25;;;9.50;;
82005;SDS011;71529;47.484;19.064;2024-02-28T05:50:07;18.70;;;9.30;;
82005;SDS011;71529;47.484;19.064;2024-02-28T05:52:41;18.38;;;9.13;;
82005;SDS011;71529;47.484;19.064;2024-02-28T05:55:11;16.13;;;9.55;;
82005;SDS011;71529;47.484;19.064;2024-02-28T05:57:40;17.67;;;9.38;;
82005;SDS011;71529;47.484;19.064;2024-02-28T06:00:09;21.80;;;9.02;;
82005;SDS011;71529;47.484;19.064;2024-02-28T06:02:39;17.98;;;9.13;;
82005;SDS011;71529;47.484;19.064;2024-02-28T06:05:10;18.60;;;9.45;;
82005;SDS011;71529;47.484;19.064;2024-02-28T06:07:40;22.00;;;10.32;;
82005;SDS011;71529;47.484;19.064;2024-02-28T06:10:09;16.60;;;9.02;;
82005;SDS011;71529;47.484;19.064;2024-02-28T06:12:38;19.38;;;9.50;;
82005;SDS011;71529;47.484;19.064;2024-02-28T06:15:09;17.10;;;9.02;;
82005;SDS011;71529;47.484;19.064;2024-02-28T06:17:38;16.95;;;9.32;;
82005;SDS011;71529;47.484;19.064;2024-02-28T06:20:07;14.30;;;8.85;;
82005;SDS011;71529;47.484;19.064;2024-02-28T06:22:39;21.38;;;10.07;;
82005;SDS011;71529;47.484;19.064;2024-02-28T06:25:09;15.70;;;8.98;;
82005;SDS011;71529;47.484;19.064;2024-02-28T06:27:44;19.35;;;8.63;;
82005;SDS011;71529;47.484;19.064;2024-02-28T06:30:12;18.35;;;9.50;;
82005;SDS011;71529;47.484;19.064;2024-02-28T06:32:42;18.85;;;9.38;;
82005;SDS011;71529;47.484;19.064;2024-02-28T06:35:14;16.38;;;9.65;;
82005;SDS011;71529;47.484;19.064;2024-02-28T06:37:43;21.10;;;9.68;;
82005;SDS011;71529;47.484;19.064;2024-02-28T06:40:15;19.83;;;10.43;;
82005;SDS011;71529;47.484;19.064;2024-02-28T06:42:44;13.88;;;8.20;;
82005;SDS011;71529;47.484;19.064;2024-02-28T06:45:13;16.15;;;9.65;;
82005;SDS011;71529;47.484;19.064;2024-02-28T06:47:43;20.35;;;10.10;;
82005;SDS011;71529;47.484;19.064;2024-02-28T06:50:15;18.55;;;9.00;;
82005;SDS011;71529;47.484;19.064;2024-02-28T06:52:44;17.88;;;9.32;;
82005;SDS011;71529;47.484;19.064;2024-02-28T06:55:13;21.02;;;10.20;;
82005;SDS011;71529;47.484;19.064;2024-02-28T06:57:42;25.85;;;11.27;;
82005;SDS011;71529;47.484;19.064;2024-02-28T07:00:11;19.02;;;11.45;;
82005;SDS011;71529;47.484;19.064;2024-02-28T07:02:41;23.35;;;11.13;;
82005;SDS011;71529;47.484;19.064;2024-02-28T07:05:10;23.02;;;12.15;;
82005;SDS011;71529;47.484;19.064;2024-02-28T07:07:42;21.90;;;10.45;;
82005;SDS011;71529;47.484;19.064;2024-02-28T07:10:12;18.25;;;10.90;;
82005;SDS011;71529;47.484;19.064;2024-02-28T07:12:40;17.42;;;11.20;;
82005;SDS011;71529;47.484;19.064;2024-02-28T07:15:10;23.38;;;11.98;;
82005;SDS011;71529;47.484;19.064;2024-02-28T07:17:38;29.55;;;11.98;;
82005;SDS011;71529;47.484;19.064;2024-02-28T07:20:08;22.45;;;11.23;;
82005;SDS011;71529;47.484;19.064;2024-02-28T07:22:38;20.02;;;11.45;;
82005;SDS011;71529;47.484;19.064;2024-02-28T07:25:11;22.73;;;11.63;;
82005;SDS011;71529;47.484;19.064;2024-02-28T07:27:40;19.67;;;11.15;;
82005;SDS011;71529;47.484;19.064;2024-02-28T07:30:09;22.58;;;10.98;;
82005;SDS011;71529;47.484;19.064;2024-02-28T07:32:39;23.02;;;11.23;;
82005;SDS011;71529;47.484;19.064;2024-02-28T07:35:08;15.60;;;10.02;;
82005;SDS011;71529;47.484;19.064;2024-02-28T07:37:37;29.27;;;10.48;;
82005;SDS011;71529;47.484;19.064;2024-02-28T07:40:07;20.63;;;9.98;;
82005;SDS011;71529;47.484;19.064;2024-02-28T07:42:39;17.83;;;10.20;;
82005;SDS011;71529;47.484;19.064;2024-02-28T07:45:07;15.38;;;9.82;;
82005;SDS011;71529;47.484;19.064;2024-02-28T07:47:37;15.68;;;10.10;;
82005;SDS011;71529;47.484;19.064;2024-02-28T07:50:06;23.13;;;10.15;;
82005;SDS011;71529;47.484;19.064;2024-02-28T07:52:35;24.30;;;11.32;;
82005;SDS011;71529;47.484;19.064;2024-02-28T07:55:05;30.92;;;12.10;;
82005;SDS011;71529;47.484;19.064;2024-02-28T07:57:34;23.88;;;12.00;;
82005;SDS011;71529;47.484;19.064;2024-02-28T08:00:07;19.58;;;10.75;;
82005;SDS011;71529;47.484;19.064;2024-02-28T08:02:42;17.20;;;10.50;;
82005;SDS011;71529;47.484;19.064;2024-02-28T08:05:11;15.70;;;11.23;;
82005;SDS011;71529;47.484;19.064;2024-02-28T08:07:42;28.73;;;11.80;;
82005;SDS011;71529;47.484;19.064;2024-02-28T08:10:10;19.88;;;10.93;;
82005;SDS011;71529;47.484;19.064;2024-02-28T08:12:40;23.13;;;11.38;;
82005;SDS011;71529;47.484;19.064;2024-02-28T08:15:14;18.25;;;9.90;;
82005;SDS011;71529;47.484;19.064;2024-02-28T08:17:43;17.88;;;10.57;;
82005;SDS011;71529;47.484;19.064;2024-02-28T08:20:12;20.20;;;10.63;;
82005;SDS011;71529;47.484;19.064;2024-02-28T08:22:42;22.23;;;10.25;;
82005;SDS011;71529;47.484;19.064;2024-02-28T08:25:12;16.40;;;9.60;;
82005;SDS011;71529;47.484;19.064;2024-02-28T08:27:42;15.77;;;9.30;;
82005;SDS011;71529;47.484;19.064;2024-02-28T08:30:11;17.17;;;9.70;;
82005;SDS011;71529;47.484;19.064;2024-02-28T08:32:43;22.13;;;9.63;;
82005;SDS011;71529;47.484;19.064;2024-02-28T08:35:12;22.27;;;10.57;;
82005;SDS011;71529;47.484;19.064;2024-02-28T08:37:42;20.27;;;11.23;;
82005;SDS011;71529;47.484;19.064;2024-02-28T08:40:10;21.13;;;9.80;;
82005;SDS011;71529;47.484;19.064;2024-02-28T08:42:40;18.50;;;9.15;;
82005;SDS011;71529;47.484;19.064;2024-02-28T08:45:10;14.30;;;9.02;;
82005;SDS011;71529;47.484;19.064;2024-02-28T08:47:38;28.85;;;10.77;;
82005;SDS011;71529;47.484;19.064;2024-02-28T08:50:10;13.52;;;9.85;;
82005;SDS011;71529;47.484;19.064;2024-02-28T08:52:38;17.90;;;10.20;;
82005;SDS011;71529;47.484;19.064;2024-02-28T08:55:07;34.38;;;11.10;;
82005;SDS011;71529;47.484;19.064;2024-02-28T08:57:37;20.40;;;10.77;;
82005;SDS011;71529;47.484;19.064;2024-02-28T09:00:06;21.20;;;11.02;;
82005;SDS011;71529;47.484;19.064;2024-02-28T09:02:36;25.80;;;11.35;;
82005;SDS011;71529;47.484;19.064;2024-02-28T09:05:05;23.17;;;10.90;;
82005;SDS011;71529;47.484;19.064;2024-02-28T09:07:37;24.63;;;11.75;;
82005;SDS011;71529;47.484;19.064;2024-02-28T09:10:07;19.05;;;10.85;;
82005;SDS011;71529;47.484;19.064;2024-02-28T09:12:37;24.20;;;10.80;;
82005;SDS011;71529;47.484;19.064;2024-02-28T09:15:06;25.05;;;12.13;;
82005;SDS011;71529;47.484;19.064;2024-02-28T09:17:36;19.98;;;10.90;;
82005;SDS011;71529;47.484;19.064;2024-02-28T09:20:06;26.65;;;11.98;;
82005;SDS011;71529;47.484;19.064;2024-02-28T09:22:38;19.73;;;10.88;;
82005;SDS011;71529;47.484;19.064;2024-02-28T09:25:07;22.33;;;10.68;;
82005;SDS011;71529;47.484;19.064;2024-02-28T09:27:37;20.10;;;11.15;;
82005;SDS011;71529;47.484;19.064;2024-02-28T09:30:06;23.10;;;11.18;;
82005;SDS011;71529;47.484;19.064;2024-02-28T09:32:36;22.48;;;11.05;;
82005;SDS011;71529;47.484;19.064;2024-02-28T09:35:05;24.27;;;10.13;;
82005;SDS011;71529;47.484;19.064;2024-02-28T09:37:39;19.85;;;9.82;;
82005;SDS011;71529;47.484;19.064;2024-02-28T09:40:09;17.13;;;10.25;;
82005;SDS011;71529;47.484;19.064;2024-02-28T09:42:38;21.08;;;10.10;;
82005;SDS011;71529;47.484;19.064;2024-02-28T09:45:08;18.15;;;9.43;;
82005;SDS011;71529;47.484;19.064;2024-02-28T09:47:41;20.17;;;10.35;;
82005;SDS011;71529;47.484;19.064;2024-02-28T09:50:10;19.98;;;10.18;;
82005;SDS011;71529;47.484;19.064;2024-02-28T09:52:43;15.60;;;9.27;;
82005;SDS011;71529;47.484;19.064;2024-02-28T09:55:13;26.42;;;11.93;;
82005;SDS011;71529;47.484;19.064;2024-02-28T09:57:42;25.60;;;10.63;;
82005;SDS011;71529;47.484;19.064;2024-02-28T10:00:14;18.08;;;10.13;;
82005;SDS011;71529;47.484;19.064;2024-02-28T10:02:47;18.55;;;9.27;;
82005;SDS011;71529;47.484;19.064;2024-02-28T10:05:18;16.30;;;9.90;;
82005;SDS011;71529;47.484;19.064;2024-02-28T10:07:55;29.42;;;13.30;;
82005;SDS011;71529;47.484;19.064;2024-02-28T10:10:24;22.42;;;11.90;;
82005;SDS011;71529;47.484;19.064;2024-02-28T10:12:53;24.35;;;11.13;;
82005;SDS011;71529;47.484;19.064;2024-02-28T10:15:22;18.88;;;9.55;;
82005;SDS011;71529;47.484;19.064;2024-02-28T10:17:51;19.27;;;11.18;;
82005;SDS011;71529;47.484;19.064;2024-02-28T10:20:19;15.23;;;9.57;;
82005;SDS011;71529;47.484;19.064;2024-02-28T10:22:48;20.20;;;9.48;;
82005;SDS011;71529;47.484;19.064;2024-02-28T10:25:23;19.98;;;9.90;;
82005;SDS011;71529;47.484;19.064;2024-02-28T10:27:52;20.92;;;9.55;;
82005;SDS011;71529;47.484;19.064;2024-02-28T10:30:21;19.23;;;9.10;;
82005;SDS011;71529;47.484;19.064;2024-02-28T10:32:50;19.23;;;9.45;;
82005;SDS011;71529;47.484;19.064;2024-02-28T10:35:21;17.65;;;8.45;;
82005;SDS011;71529;47.484;19.064;2024-02-28T10:37:52;20.65;;;9.52;;
82005;SDS011;71529;47.484;19.064;2024-02-28T10:40:24;15.70;;;9.35;;
82005;SDS011;71529;47.484;19.064;2024-02-28T10:42:53;19.40;;;10.60;;
82005;SDS011;71529;47.484;19.064;2024-02-28T10:45:24;21.30;;;9.32;;
82005;SDS011;71529;47.484;19.064;2024-02-28T10:47:56;16.80;;;9.85;;
82005;SDS011;71529;47.484;19.064;2024-02-28T10:50:25;20.45;;;9.98;;
82005;SDS011;71529;47.484;19.064;2024-02-28T10:52:55;20.08;;;10.25;;
82005;SDS011;71529;47.484;19.064;2024-02-28T10:55:32;19.73;;;12.55;;
82005;SDS011;71529;47.484;19.064;2024-02-28T10:58:03;20.67;;;10.90;;
82005;SDS011;71529;47.484;19.064;2024-02-28T11:00:36;24.25;;;11.93;;
82005;SDS011;71529;47.484;19.064;2024-02-28T11:03:06;23.15;;;11.57;;
82005;SDS011;71529;47.484;19.064;2024-02-28T11:05:37;22.63;;;11.57;;
82005;SDS011;71529;47.484;19.064;2024-02-28T11:08:08;18.02;;;10.93;;
82005;SDS011;71529;47.484;19.064;2024-02-28T11:10:42;24.48;;;10.93;;
82005;SDS011;71529;47.484;19.064;2024-02-28T11:13:21;20.30;;;10.88;;
82005;SDS011;71529;47.484;19.064;2024-02-28T11:15:50;17.58;;;10.25;;
82005;SDS011;71529;47.484;19.064;2024-02-28T11:18:21;17.75;;;10.95;;
82005;SDS011;71529;47.484;19.064;2024-02-28T11:20:49;25.10;;;10.55;;
82005;SDS011;71529;47.484;19.064;2024-02-28T11:23:19;18.15;;;10.43;;
82005;SDS011;71529;47.484;19.064;2024-02-28T11:25:50;26.52;;;11.00;;
82005;SDS011;71529;47.484;19.064;2024-02-28T11:28:19;19.50;;;9.82;;
82005;SDS011;71529;47.484;19.064;2024-02-28T11:30:50;19.52;;;10.18;;
82005;SDS011;71529;47.484;19.064;2024-02-28T11:33:19;22.75;;;11.05;;
82005;SDS011;71529;47.484;19.064;2024-02-28T11:35:53;23.25;;;10.90;;
82005;SDS011;71529;47.484;19.064;2024-02-28T11:38:24;16.85;;;10.02;;
82005;SDS011;71529;47.484;19.064;2024-02-28T11:40:56;17.35;;;10.70;;
82005;SDS011;71529;47.484;19.064;2024-02-28T11:43:24;25.30;;;11.80;;
82005;SDS011;71529;47.484;19.064;2024-02-28T11:45:53;24.52;;;11.07;;
82005;SDS011;71529;47.484;19.064;2024-02-28T11:48:25;21.13;;;10.10;;
82005;SDS011;71529;47.484;19.064;2024-02-28T11:50:54;24.60;;;11.05;;
82005;SDS011;71529;47.484;19.064;2024-02-28T11:53:25;20.13;;;10.52;;
82005;SDS011;71529;47.484;19.064;2024-02-28T11:55:57;34.88;;;18.88;;
82005;SDS011;71529;47.484;19.064;2024-02-28T11:58:26;35.70;;;17.85;;
82005;SDS011;71529;47.484;19.064;2024-02-28T12:00:55;26.42;;;15.07;;
82005;SDS011;71529;47.484;19.064;2024-02-28T12:03:24;25.23;;;14.02;;
82005;SDS011;71529;47.484;19.064;2024-02-28T12:05:54;24.55;;;14.43;;
82005;SDS011;71529;47.484;19.064;2024-02-28T12:08:24;23.02;;;13.13;;
82005;SDS011;71529;47.484;19.064;2024-02-28T12:10:53;25.23;;;13.48;;
82005;SDS011;71529;47.484;19.064;2024-02-28T12:13:25;21.02;;;12.50;;
82005;SDS011;71529;47.484;19.064;2024-02-28T12:15:54;26.52;;;13.80;;
82005;SDS011;71529;47.484;19.064;2024-02-28T12:18:25;24.48;;;12.20;;
82005;SDS011;71529;47.484;19.064;2024-02-28T12:20:55;19.92;;;11.52;;
82005;SDS011;71529;47.484;19.064;2024-02-28T12:23:24;21.08;;;10.80;;
82005;SDS011;71529;47.484;19.064;2024-02-28T12:25:54;21.65;;;11.77;;
82005;SDS011;71529;47.484;19.064;2024-02-28T12:28:25;25.67;;;12.13;;
82005;SDS011;71529;47.484;19.064;2024-02-28T12:30:56;24.45;;;11.90;;
82005;SDS011;71529;47.484;19.064;2024-02-28T12:33:24;22.23;;;11.65;;
82005;SDS011;71529;47.484;19.064;2024-02-28T12:35:53;26.38;;;12.05;;
82005;SDS011;71529;47.484;19.064;2024-02-28T12:38:22;19.17;;;11.07;;
82005;SDS011;71529;47.484;19.064;2024-02-28T12:40:51;24.05;;;10.85;;
82005;SDS011;71529;47.484;19.064;2024-02-28T12:43:20;20.00;;;12.00;;
82005;SDS011;71529;47.484;19.064;2024-02-28T12:45:52;15.75;;;10.18;;
82005;SDS011;71529;47.484;19.064;2024-02-28T12:48:21;24.30;;;10.85;;
82005;SDS011;71529;47.484;19.064;2024-02-28T12:50:50;18.17;;;10.40;;
82005;SDS011;71529;47.484;19.064;2024-02-28T12:53:18;24.95;;;11.25;;
82005;SDS011;71529;47.484;19.064;2024-02-28T12:55:47;19.88;;;10.07;;
82005;SDS011;71529;47.484;19.064;2024-02-28T12:58:16;21.70;;;11.05;;
82005;SDS011;71529;47.484;19.064;2024-02-28T13:00:45;21.98;;;11.35;;
82005;SDS011;71529;47.484;19.064;2024-02-28T13:03:17;17.45;;;10.52;;
82005;SDS011;71529;47.484;19.064;2024-02-28T13:05:47;21.58;;;10.52;;
82005;SDS011;71529;47.484;19.064;2024-02-28T13:08:16;18.73;;;11.13;;
82005;SDS011;71529;47.484;19.064;2024-02-28T13:10:45;19.13;;;10.63;;
82005;SDS011;71529;47.484;19.064;2024-02-28T13:13:14;21.70;;;11.68;;
82005;SDS011;71529;47.484;19.064;2024-02-28T13:15:42;18.70;;;10.45;;
82005;SDS011;71529;47.484;19.064;2024-02-28T13:18:17;15.52;;;10.68;;
82005;SDS011;71529;47.484;19.064;2024-02-28T13:20:46;22.05;;;10.65;;
82005;SDS011;71529;47.484;19.064;2024-02-28T13:23:15;21.88;;;10.38;;
82005;SDS011;71529;47.484;19.064;2024-02-28T13:25:44;20.02;;;10.73;;
82005;SDS011;71529;47.484;19.064;2024-02-28T13:28:14;26.20;;;16.00;;
82005;SDS011;71529;47.484;19.064;2024-02-28T13:30:43;26.38;;;12.48;;
82005;SDS011;71529;47.484;19.064;2024-02-28T13:33:12;23.13;;;13.13;;
82005;SDS011;71529;47.484;19.064;2024-02-28T13:35:43;18.75;;;11.85;;
82005;SDS011;71529;47.484;19.064;2024-02-28T13:38:12;22.98;;;12.55;;
82005;SDS011;71529;47.484;19.064;2024-02-28T13:40:42;20.40;;;11.90;;
82005;SDS011;71529;47.484;19.064;2024-02-28T13:43:11;19.00;;;11.65;;
82005;SDS011;71529;47.484;19.064;2024-02-28T13:45:40;22.25;;;11.85;;
82005;SDS011;71529;47.484;19.064;2024-02-28T13:48:15;20.83;;;12.18;;
82005;SDS011;71529;47.484;19.064;2024-02-28T13:50:49;18.25;;;10.75;;
82005;SDS011;71529;47.484;19.064;2024-02-28T13:53:17;23.27;;;10.75;;
82005;SDS011;71529;47.484;19.064;2024-02-28T13:55:46;17.73;;;9.70;;
82005;SDS011;71529;47.484;19.064;2024-02-28T13:58:15;19.25;;;11.93;;
82005;SDS011;71529;47.484;19.064;2024-02-28T14:00:44;18.38;;;10.05;;
82005;SDS011;71529;47.484;19.064;2024-02-28T14:03:13;18.75;;;11.50;;
82005;SDS011;71529;47.484;19.064;2024-02-28T14:05:43;23.85;;;10.13;;
82005;SDS011;71529;47.484;19.064;2024-02-28T14:08:15;16.95;;;9.68;;
82005;SDS011;71529;47.484;19.064;2024-02-28T14:10:44;15.85;;;9.98;;
82005;SDS011;71529;47.484;19.064;2024-02-28T14:13:13;17.60;;;10.00;;
82005;SDS011;71529;47.484;19.064;2024-02-28T14:15:44;19.42;;;10.10;;
82005;SDS011;71529;47.484;19.064;2024-02-28T14:18:13;36.08;;;23.65;;
82005;SDS011;71529;47.484;19.064;2024-02-28T14:20:43;25.58;;;13.68;;
82005;SDS011;71529;47.484;19.064;2024-02-28T14:23:11;25.88;;;14.07;;
82005;SDS011;71529;47.484;19.064;2024-02-28T14:25:43;22.08;;;13.52;;